sensor_id;sensor_type;location;lat;lon;timestamp;P1;durP1;ratioP1;P2;durP2;ratioP2
12480;SDS011;6305;48.398;11.762;2024-03-08T00:01:35;39.33;;;18.43;;
12480;SDS011;6305;48.398;11.762;2024-03-08T00:04:02;35.27;;;18.30;;
12480;SDS011;6305;48.398;11.762;2024-03-08T00:06:29;38.60;;;19.73;;
12480;SDS011;6305;48.398;11.762;2024-03-08T00:08:56;37.20;;;19.33;;
12480;SDS011;6305;48.398;11.762;2024-03-08T00:11:23;38.17;;;18.97;;
12480;SDS011;6305;48.398;11.762;2024-03-08T00:13:52;35.57;;;19.23;;
12480;SDS011;6305;48.398;11.762;2024-03-08T00:16:19;39.80;;;20.50;;
12480;SDS011;6305;48.398;11.762;2024-03-08T00:18:48;38.10;;;18.57;;
12480;SDS011;6305;48.398;11.762;2024-03-08T00:21:16;38.87;;;19.67;;
12480;SDS011;6305;48.398;11.762;2024-03-08T00:23:43;41.77;;;20.13;;
12480;SDS011;6305;48.398;11.762;2024-03-08T00:26:10;40.27;;;19.83;;
12480;SDS011;6305;48.398;11.762;2024-03-08T00:28:37;37.90;;;20.43;;
12480;SDS011;6305;48.398;11.762;2024-03-08T00:31:05;38.77;;;19.40;;
12480;SDS011;6305;48.398;11.762;2024-03-08T00:33:32;41.83;;;21.63;;
12480;SDS011;6305;48.398;11.762;2024-03-08T00:35:59;41.50;;;21.23;;
12480;SDS011;6305;48.398;11.762;2024-03-08T00:38:26;38.13;;;21.00;;
12480;SDS011;6305;48.398;11.762;2024-03-08T00:40:53;40.33;;;21.53;;
12480;SDS011;6305;48.398;11.762;2024-03-08T00:43:21;37.27;;;19.93;;
12480;SDS011;6305;48.398;11.762;2024-03-08T00:45:48;39.57;;;20.40;;
12480;SDS011;6305;48.398;11.762;2024-03-08T00:48:16;39.30;;;20.97;;
12480;SDS011;6305;48.398;11.762;2024-03-08T00:50:43;40.40;;;20.80;;
12480;SDS011;6305;48.398;11.762;2024-03-08T00:53:11;38.00;;;19.83;;
12480;SDS011;6305;48.398;11.762;2024-03-08T00:55:38;40.37;;;21.47;;
12480;SDS011;6305;48.398;11.762;2024-03-08T00:58:05;39.00;;;20.33;;
12480;SDS011;6305;48.398;11.762;2024-03-08T01:00:33;41.90;;;20.63;;
12480;SDS011;6305;48.398;11.762;2024-03-08T01:03:00;42.53;;;22.17;;
12480;SDS011;6305;48.398;11.762;2024-03-08T01:05:30;44.80;;;21.00;;
12480;SDS011;6305;48.398;11.762;2024-03-08T01:07:57;44.20;;;21.10;;
12480;SDS011;6305;48.398;11.762;2024-03-08T01:10:24;38.87;;;20.87;;
12480;SDS011;6305;48.398;11.762;2024-03-08T01:12:52;40.57;;;21.23;;
12480;SDS011;6305;48.398;11.762;2024-03-08T01:15:19;41.17;;;21.67;;
12480;SDS011;6305;48.398;11.762;2024-03-08T01:17:47;47.00;;;21.80;;
12480;SDS011;6305;48.398;11.762;2024-03-08T01:20:14;46.00;;;22.07;;
12480;SDS011;6305;48.398;11.762;2024-03-08T01:22:42;43.80;;;22.13;;
12480;SDS011;6305;48.398;11.762;2024-03-08T01:25:09;45.03;;;22.63;;
12480;SDS011;6305;48.398;11.762;2024-03-08T01:27:36;45.43;;;23.17;;
12480;SDS011;6305;48.398;11.762;2024-03-08T01:30:03;53.20;;;24.50;;
12480;SDS011;6305;48.398;11.762;2024-03-08T01:32:31;48.03;;;23.23;;
12480;SDS011;6305;48.398;11.762;2024-03-08T01:34:58;51.07;;;24.20;;
12480;SDS011;6305;48.398;11.762;2024-03-08T01:37:25;52.47;;;24.73;;
12480;SDS011;6305;48.398;11.762;2024-03-08T01:39:56;52.33;;;24.60;;
12480;SDS011;6305;48.398;11.762;2024-03-08T01:42:23;55.03;;;24.63;;
12480;SDS011;6305;48.398;11.762;2024-03-08T01:44:50;54.37;;;24.07;;
12480;SDS011;6305;48.398;11.762;2024-03-08T01:47:17;53.27;;;25.07;;
12480;SDS011;6305;48.398;11.762;2024-03-08T01:49:45;55.57;;;25.27;;
12480;SDS011;6305;48.398;11.762;2024-03-08T01:52:12;57.93;;;26.10;;
12480;SDS011;6305;48.398;11.762;2024-03-08T01:54:39;54.77;;;26.70;;
12480;SDS011;6305;48.398;11.762;2024-03-08T01:57:08;58.07;;;26.33;;
12480;SDS011;6305;48.398;11.762;2024-03-08T01:59:35;60.57;;;27.57;;
12480;SDS011;6305;48.398;11.762;2024-03-08T02:02:02;61.50;;;26.97;;
12480;SDS011;6305;48.398;11.762;2024-03-08T02:04:34;58.27;;;26.93;;
12480;SDS011;6305;48.398;11.762;2024-03-08T02:07:01;60.33;;;25.77;;
12480;SDS011;6305;48.398;11.762;2024-03-08T02:09:30;64.20;;;26.70;;
12480;SDS011;6305;48.398;11.762;2024-03-08T02:11:57;67.90;;;27.93;;
12480;SDS011;6305;48.398;11.762;2024-03-08T02:14:31;57.03;;;26.17;;
12480;SDS011;6305;48.398;11.762;2024-03-08T02:16:59;63.87;;;28.80;;
12480;SDS011;6305;48.398;11.762;2024-03-08T02:19:27;64.17;;;28.67;;
12480;SDS011;6305;48.398;11.762;2024-03-08T02:21:55;60.57;;;27.10;;
12480;SDS011;6305;48.398;11.762;2024-03-08T02:24:23;63.80;;;26.97;;
12480;SDS011;6305;48.398;11.762;2024-03-08T02:26:50;58.13;;;25.77;;
12480;SDS011;6305;48.398;11.762;2024-03-08T02:29:18;65.73;;;27.63;;
12480;SDS011;6305;48.398;11.762;2024-03-08T02:31:46;68.03;;;28.00;;
12480;SDS011;6305;48.398;11.762;2024-03-08T02:34:13;63.27;;;26.50;;
12480;SDS011;6305;48.398;11.762;2024-03-08T02:36:40;68.47;;;27.40;;
12480;SDS011;6305;48.398;11.762;2024-03-08T02:39:09;66.10;;;27.23;;
12480;SDS011;6305;48.398;11.762;2024-03-08T02:41:37;61.90;;;26.90;;
12480;SDS011;6305;48.398;11.762;2024-03-08T02:44:04;66.87;;;27.67;;
12480;SDS011;6305;48.398;11.762;2024-03-08T02:46:32;63.13;;;27.67;;
12480;SDS011;6305;48.398;11.762;2024-03-08T02:49:01;63.97;;;26.97;;
12480;SDS011;6305;48.398;11.762;2024-03-08T02:51:28;63.53;;;26.77;;
12480;SDS011;6305;48.398;11.762;2024-03-08T02:53:56;68.33;;;27.80;;
12480;SDS011;6305;48.398;11.762;2024-03-08T02:56:24;65.67;;;26.60;;
12480;SDS011;6305;48.398;11.762;2024-03-08T02:58:51;58.83;;;27.03;;
12480;SDS011;6305;48.398;11.762;2024-03-08T03:01:19;67.40;;;26.93;;
12480;SDS011;6305;48.398;11.762;2024-03-08T03:03:47;64.10;;;26.93;;
12480;SDS011;6305;48.398;11.762;2024-03-08T03:06:14;63.47;;;26.73;;
12480;SDS011;6305;48.398;11.762;2024-03-08T03:08:41;60.90;;;25.90;;
12480;SDS011;6305;48.398;11.762;2024-03-08T03:11:10;70.60;;;26.37;;
12480;SDS011;6305;48.398;11.762;2024-03-08T03:13:40;64.67;;;25.07;;
12480;SDS011;6305;48.398;11.762;2024-03-08T03:16:07;67.17;;;27.03;;
12480;SDS011;6305;48.398;11.762;2024-03-08T03:18:35;69.67;;;27.23;;
12480;SDS011;6305;48.398;11.762;2024-03-08T03:21:02;64.20;;;27.03;;
12480;SDS011;6305;48.398;11.762;2024-03-08T03:23:32;72.37;;;29.13;;
12480;SDS011;6305;48.398;11.762;2024-03-08T03:26:00;64.03;;;26.13;;
12480;SDS011;6305;48.398;11.762;2024-03-08T03:28:27;66.80;;;28.03;;
12480;SDS011;6305;48.398;11.762;2024-03-08T03:30:56;71.10;;;27.77;;
12480;SDS011;6305;48.398;11.762;2024-03-08T03:33:24;72.63;;;28.40;;
12480;SDS011;6305;48.398;11.762;2024-03-08T03:35:50;63.70;;;27.67;;
12480;SDS011;6305;48.398;11.762;2024-03-08T03:38:18;68.20;;;27.00;;
12480;SDS011;6305;48.398;11.762;2024-03-08T03:40:46;72.57;;;27.97;;
12480;SDS011;6305;48.398;11.762;2024-03-08T03:43:14;64.90;;;26.83;;
12480;SDS011;6305;48.398;11.762;2024-03-08T03:45:40;68.00;;;27.97;;
12480;SDS011;6305;48.398;11.762;2024-03-08T03:48:09;66.87;;;26.13;;
12480;SDS011;6305;48.398;11.762;2024-03-08T03:50:36;74.27;;;29.00;;
12480;SDS011;6305;48.398;11.762;2024-03-08T03:53:03;77.13;;;30.27;;
12480;SDS011;6305;48.398;11.762;2024-03-08T03:55:33;77.47;;;29.00;;
12480;SDS011;6305;48.398;11.762;2024-03-08T03:58:02;73.93;;;29.13;;
12480;SDS011;6305;48.398;11.762;2024-03-08T04:00:29;79.33;;;30.10;;
12480;SDS011;6305;48.398;11.762;2024-03-08T04:02:57;74.20;;;28.37;;
12480;SDS011;6305;48.398;11.762;2024-03-08T04:05:27;72.47;;;29.63;;
12480;SDS011;6305;48.398;11.762;2024-03-08T04:07:54;71.10;;;29.47;;
12480;SDS011;6305;48.398;11.762;2024-03-08T04:10:21;72.20;;;29.03;;
12480;SDS011;6305;48.398;11.762;2024-03-08T04:12:48;73.13;;;27.80;;
12480;SDS011;6305;48.398;11.762;2024-03-08T04:15:15;73.17;;;28.47;;
12480;SDS011;6305;48.398;11.762;2024-03-08T04:17:42;74.80;;;29.67;;
12480;SDS011;6305;48.398;11.762;2024-03-08T04:20:11;66.20;;;26.83;;
12480;SDS011;6305;48.398;11.762;2024-03-08T04:22:40;73.07;;;29.20;;
12480;SDS011;6305;48.398;11.762;2024-03-08T04:25:08;70.23;;;29.20;;
12480;SDS011;6305;48.398;11.762;2024-03-08T04:27:35;77.77;;;28.03;;
12480;SDS011;6305;48.398;11.762;2024-03-08T04:30:02;73.43;;;27.67;;
12480;SDS011;6305;48.398;11.762;2024-03-08T04:32:33;71.60;;;29.70;;
12480;SDS011;6305;48.398;11.762;2024-03-08T04:34:59;74.63;;;28.97;;
12480;SDS011;6305;48.398;11.762;2024-03-08T04:37:28;75.30;;;28.80;;
12480;SDS011;6305;48.398;11.762;2024-03-08T04:39:57;72.30;;;28.50;;
12480;SDS011;6305;48.398;11.762;2024-03-08T04:42:25;69.63;;;27.90;;
12480;SDS011;6305;48.398;11.762;2024-03-08T04:44:54;70.53;;;28.67;;
12480;SDS011;6305;48.398;11.762;2024-03-08T04:47:20;72.47;;;28.43;;
12480;SDS011;6305;48.398;11.762;2024-03-08T04:49:47;74.10;;;29.47;;
12480;SDS011;6305;48.398;11.762;2024-03-08T04:52:15;69.10;;;28.00;;
12480;SDS011;6305;48.398;11.762;2024-03-08T04:54:43;71.10;;;28.87;;
12480;SDS011;6305;48.398;11.762;2024-03-08T04:57:12;66.13;;;27.90;;
12480;SDS011;6305;48.398;11.762;2024-03-08T04:59:39;70.77;;;29.47;;
12480;SDS011;6305;48.398;11.762;2024-03-08T05:02:06;71.93;;;28.97;;
12480;SDS011;6305;48.398;11.762;2024-03-08T05:04:33;74.10;;;29.13;;
12480;SDS011;6305;48.398;11.762;2024-03-08T05:07:00;74.93;;;29.37;;
12480;SDS011;6305;48.398;11.762;2024-03-08T05:09:27;67.10;;;28.50;;
12480;SDS011;6305;48.398;11.762;2024-03-08T05:11:56;66.93;;;28.27;;
12480;SDS011;6305;48.398;11.762;2024-03-08T05:14:26;69.67;;;27.97;;
12480;SDS011;6305;48.398;11.762;2024-03-08T05:16:53;71.77;;;28.13;;
12480;SDS011;6305;48.398;11.762;2024-03-08T05:19:20;71.50;;;30.17;;
12480;SDS011;6305;48.398;11.762;2024-03-08T05:21:47;74.87;;;29.73;;
12480;SDS011;6305;48.398;11.762;2024-03-08T05:24:15;77.47;;;29.63;;
12480;SDS011;6305;48.398;11.762;2024-03-08T05:26:42;77.40;;;31.00;;
12480;SDS011;6305;48.398;11.762;2024-03-08T05:29:10;78.77;;;30.77;;
12480;SDS011;6305;48.398;11.762;2024-03-08T05:31:42;70.27;;;29.27;;
12480;SDS011;6305;48.398;11.762;2024-03-08T05:34:13;74.57;;;29.77;;
12480;SDS011;6305;48.398;11.762;2024-03-08T05:36:40;74.43;;;30.43;;
12480;SDS011;6305;48.398;11.762;2024-03-08T05:39:09;76.03;;;30.23;;
12480;SDS011;6305;48.398;11.762;2024-03-08T05:41:37;79.93;;;30.67;;
12480;SDS011;6305;48.398;11.762;2024-03-08T05:44:04;79.73;;;30.23;;
12480;SDS011;6305;48.398;11.762;2024-03-08T05:46:31;80.20;;;30.57;;
12480;SDS011;6305;48.398;11.762;2024-03-08T05:49:00;84.80;;;32.97;;
12480;SDS011;6305;48.398;11.762;2024-03-08T05:51:30;84.07;;;33.03;;
12480;SDS011;6305;48.398;11.762;2024-03-08T05:54:00;76.90;;;31.27;;
12480;SDS011;6305;48.398;11.762;2024-03-08T05:56:28;76.97;;;31.57;;
12480;SDS011;6305;48.398;11.762;2024-03-08T05:58:55;87.30;;;33.77;;
12480;SDS011;6305;48.398;11.762;2024-03-08T06:01:23;84.67;;;33.83;;
12480;SDS011;6305;48.398;11.762;2024-03-08T06:03:50;84.50;;;31.80;;
12480;SDS011;6305;48.398;11.762;2024-03-08T06:06:20;79.67;;;32.00;;
12480;SDS011;6305;48.398;11.762;2024-03-08T06:08:48;78.67;;;31.73;;
12480;SDS011;6305;48.398;11.762;2024-03-08T06:11:15;79.10;;;32.03;;
12480;SDS011;6305;48.398;11.762;2024-03-08T06:13:43;79.47;;;31.07;;
12480;SDS011;6305;48.398;11.762;2024-03-08T06:16:10;84.43;;;33.67;;
12480;SDS011;6305;48.398;11.762;2024-03-08T06:18:37;86.47;;;32.90;;
12480;SDS011;6305;48.398;11.762;2024-03-08T06:21:04;78.43;;;30.97;;
12480;SDS011;6305;48.398;11.762;2024-03-08T06:23:33;78.83;;;32.70;;
12480;SDS011;6305;48.398;11.762;2024-03-08T06:26:03;73.60;;;30.43;;
12480;SDS011;6305;48.398;11.762;2024-03-08T06:28:30;73.77;;;30.37;;
12480;SDS011;6305;48.398;11.762;2024-03-08T06:30:58;73.00;;;29.73;;
12480;SDS011;6305;48.398;11.762;2024-03-08T06:33:25;69.40;;;30.23;;
12480;SDS011;6305;48.398;11.762;2024-03-08T06:35:52;69.87;;;31.83;;
12480;SDS011;6305;48.398;11.762;2024-03-08T06:38:22;75.40;;;30.70;;
12480;SDS011;6305;48.398;11.762;2024-03-08T06:40:50;72.90;;;30.30;;
12480;SDS011;6305;48.398;11.762;2024-03-08T06:43:17;68.53;;;30.37;;
12480;SDS011;6305;48.398;11.762;2024-03-08T06:45:44;65.90;;;28.43;;
12480;SDS011;6305;48.398;11.762;2024-03-08T06:48:13;69.47;;;29.23;;
12480;SDS011;6305;48.398;11.762;2024-03-08T06:50:42;70.13;;;29.57;;
12480;SDS011;6305;48.398;11.762;2024-03-08T06:53:10;68.47;;;28.73;;
12480;SDS011;6305;48.398;11.762;2024-03-08T06:55:37;65.93;;;28.83;;
12480;SDS011;6305;48.398;11.762;2024-03-08T06:58:05;55.27;;;27.90;;
12480;SDS011;6305;48.398;11.762;2024-03-08T07:00:33;53.42;;;25.95;;
12480;SDS011;6305;48.398;11.762;2024-03-08T07:02:59;53.08;;;26.30;;
12480;SDS011;6305;48.398;11.762;2024-03-08T07:05:26;55.95;;;26.20;;
12480;SDS011;6305;48.398;11.762;2024-03-08T07:07:54;49.42;;;24.30;;
12480;SDS011;6305;48.398;11.762;2024-03-08T07:10:21;46.22;;;23.98;;
12480;SDS011;6305;48.398;11.762;2024-03-08T07:12:49;49.15;;;24.05;;
12480;SDS011;6305;48.398;11.762;2024-03-08T07:15:21;53.13;;;24.65;;
12480;SDS011;6305;48.398;11.762;2024-03-08T07:17:48;43.95;;;19.98;;
12480;SDS011;6305;48.398;11.762;2024-03-08T07:20:17;43.85;;;23.00;;
12480;SDS011;6305;48.398;11.762;2024-03-08T07:22:45;44.40;;;22.45;;
12480;SDS011;6305;48.398;11.762;2024-03-08T07:25:13;46.83;;;24.08;;
12480;SDS011;6305;48.398;11.762;2024-03-08T07:27:47;44.55;;;23.02;;
12480;SDS011;6305;48.398;11.762;2024-03-08T07:30:14;45.15;;;22.77;;
12480;SDS011;6305;48.398;11.762;2024-03-08T07:33:05;43.80;;;22.45;;
12480;SDS011;6305;48.398;11.762;2024-03-08T07:35:33;45.80;;;23.83;;
12480;SDS011;6305;48.398;11.762;2024-03-08T07:38:02;42.03;;;22.15;;
12480;SDS011;6305;48.398;11.762;2024-03-08T07:40:30;45.35;;;22.70;;
12480;SDS011;6305;48.398;11.762;2024-03-08T07:42:57;43.65;;;22.58;;
12480;SDS011;6305;48.398;11.762;2024-03-08T07:45:25;43.60;;;22.48;;
12480;SDS011;6305;48.398;11.762;2024-03-08T07:47:52;41.08;;;22.73;;
12480;SDS011;6305;48.398;11.762;2024-03-08T07:50:20;40.33;;;22.08;;
12480;SDS011;6305;48.398;11.762;2024-03-08T07:52:48;37.05;;;20.52;;
12480;SDS011;6305;48.398;11.762;2024-03-08T07:55:15;41.00;;;21.77;;
12480;SDS011;6305;48.398;11.762;2024-03-08T07:57:42;38.45;;;20.98;;
12480;SDS011;6305;48.398;11.762;2024-03-08T08:00:09;40.20;;;21.52;;
12480;SDS011;6305;48.398;11.762;2024-03-08T08:02:42;42.97;;;21.88;;
12480;SDS011;6305;48.398;11.762;2024-03-08T08:05:10;36.72;;;20.73;;
12480;SDS011;6305;48.398;11.762;2024-03-08T08:07:40;32.75;;;19.15;;
12480;SDS011;6305;48.398;11.762;2024-03-08T08:10:11;37.70;;;21.23;;
12480;SDS011;6305;48.398;11.762;2024-03-08T08:12:43;36.60;;;20.70;;
12480;SDS011;6305;48.398;11.762;2024-03-08T08:15:11;34.53;;;20.08;;
12480;SDS011;6305;48.398;11.762;2024-03-08T08:17:40;37.25;;;20.27;;
12480;SDS011;6305;48.398;11.762;2024-03-08T08:20:10;34.70;;;20.38;;
12480;SDS011;6305;48.398;11.762;2024-03-08T08:22:39;33.10;;;19.05;;
12480;SDS011;6305;48.398;11.762;2024-03-08T08:25:08;34.03;;;20.25;;
12480;SDS011;6305;48.398;11.762;2024-03-08T08:27:38;35.42;;;20.10;;
12480;SDS011;6305;48.398;11.762;2024-03-08T08:30:05;36.05;;;20.92;;
12480;SDS011;6305;48.398;11.762;2024-03-08T08:32:33;30.70;;;19.13;;
12480;SDS011;6305;48.398;11.762;2024-03-08T08:35:01;28.95;;;18.45;;
12480;SDS011;6305;48.398;11.762;2024-03-08T08:37:29;30.92;;;19.05;;
12480;SDS011;6305;48.398;11.762;2024-03-08T08:39:58;30.05;;;18.65;;
12480;SDS011;6305;48.398;11.762;2024-03-08T08:42:30;30.05;;;19.40;;
12480;SDS011;6305;48.398;11.762;2024-03-08T08:44:57;31.00;;;18.60;;
12480;SDS011;6305;48.398;11.762;2024-03-08T08:47:24;30.33;;;18.65;;
12480;SDS011;6305;48.398;11.762;2024-03-08T08:49:51;29.00;;;18.00;;
12480;SDS011;6305;48.398;11.762;2024-03-08T08:52:19;25.40;;;16.50;;
12480;SDS011;6305;48.398;11.762;2024-03-08T08:54:46;29.05;;;18.45;;
12480;SDS011;6305;48.398;11.762;2024-03-08T08:57:16;29.45;;;18.00;;
12480;SDS011;6305;48.398;11.762;2024-03-08T08:59:43;28.52;;;17.65;;
12480;SDS011;6305;48.398;11.762;2024-03-08T09:02:10;30.85;;;18.15;;
12480;SDS011;6305;48.398;11.762;2024-03-08T09:04:38;24.70;;;16.35;;
12480;SDS011;6305;48.398;11.762;2024-03-08T09:07:05;26.52;;;17.60;;
12480;SDS011;6305;48.398;11.762;2024-03-08T09:09:32;26.27;;;17.00;;
12480;SDS011;6305;48.398;11.762;2024-03-08T09:12:00;28.38;;;18.80;;
12480;SDS011;6305;48.398;11.762;2024-03-08T09:14:28;25.55;;;17.25;;
12480;SDS011;6305;48.398;11.762;2024-03-08T09:16:55;25.10;;;17.73;;
12480;SDS011;6305;48.398;11.762;2024-03-08T09:19:22;24.80;;;17.08;;
12480;SDS011;6305;48.398;11.762;2024-03-08T09:21:51;25.60;;;16.58;;
12480;SDS011;6305;48.398;11.762;2024-03-08T09:24:18;27.10;;;17.33;;
12480;SDS011;6305;48.398;11.762;2024-03-08T09:26:44;25.48;;;17.15;;
12480;SDS011;6305;48.398;11.762;2024-03-08T09:29:11;26.45;;;17.80;;
12480;SDS011;6305;48.398;11.762;2024-03-08T09:31:40;23.50;;;16.85;;
12480;SDS011;6305;48.398;11.762;2024-03-08T09:34:07;22.38;;;16.40;;
12480;SDS011;6305;48.398;11.762;2024-03-08T09:36:34;22.20;;;16.55;;
12480;SDS011;6305;48.398;11.762;2024-03-08T09:39:02;21.85;;;16.40;;
12480;SDS011;6305;48.398;11.762;2024-03-08T09:41:32;21.67;;;15.65;;
12480;SDS011;6305;48.398;11.762;2024-03-08T09:44:00;20.70;;;14.50;;
12480;SDS011;6305;48.398;11.762;2024-03-08T09:46:29;21.45;;;14.93;;
12480;SDS011;6305;48.398;11.762;2024-03-08T09:48:57;21.05;;;14.95;;
12480;SDS011;6305;48.398;11.762;2024-03-08T09:51:27;21.45;;;14.63;;
12480;SDS011;6305;48.398;11.762;2024-03-08T09:53:56;20.58;;;15.23;;
12480;SDS011;6305;48.398;11.762;2024-03-08T09:56:23;21.30;;;15.18;;
12480;SDS011;6305;48.398;11.762;2024-03-08T09:58:52;19.13;;;14.18;;
12480;SDS011;6305;48.398;11.762;2024-03-08T10:01:45;19.70;;;14.50;;
12480;SDS011;6305;48.398;11.762;2024-03-08T10:04:13;21.27;;;15.02;;
12480;SDS011;6305;48.398;11.762;2024-03-08T10:06:41;22.10;;;15.65;;
12480;SDS011;6305;48.398;11.762;2024-03-08T10:09:09;18.95;;;15.00;;
12480;SDS011;6305;48.398;11.762;2024-03-08T10:11:36;18.67;;;14.75;;
12480;SDS011;6305;48.398;11.762;2024-03-08T10:14:04;19.65;;;13.98;;
12480;SDS011;6305;48.398;11.762;2024-03-08T10:16:32;20.50;;;14.63;;
12480;SDS011;6305;48.398;11.762;2024-03-08T10:19:00;22.05;;;15.18;;
12480;SDS011;6305;48.398;11.762;2024-03-08T10:21:29;20.50;;;15.35;;
12480;SDS011;6305;48.398;11.762;2024-03-08T10:23:57;20.80;;;14.88;;
12480;SDS011;6305;48.398;11.762;2024-03-08T10:26:25;16.90;;;13.23;;
12480;SDS011;6305;48.398;11.762;2024-03-08T10:28:52;17.30;;;14.02;;
12480;SDS011;6305;48.398;11.762;2024-03-08T10:31:19;19.00;;;14.77;;
12480;SDS011;6305;48.398;11.762;2024-03-08T10:33:46;18.17;;;13.73;;
12480;SDS011;6305;48.398;11.762;2024-03-08T10:36:14;17.15;;;13.57;;
12480;SDS011;6305;48.398;11.762;2024-03-08T10:38:45;16.15;;;13.20;;
12480;SDS011;6305;48.398;11.762;2024-03-08T10:41:12;18.13;;;14.02;;
12480;SDS011;6305;48.398;11.762;2024-03-08T10:43:46;17.60;;;14.48;;
12480;SDS011;6305;48.398;11.762;2024-03-08T10:46:25;17.65;;;13.73;;
12480;SDS011;6305;48.398;11.762;2024-03-08T10:49:02;16.35;;;13.25;;
12480;SDS011;6305;48.398;11.762;2024-03-08T10:51:32;15.20;;;12.30;;
12480;SDS011;6305;48.398;11.762;2024-03-08T10:54:01;15.02;;;12.77;;
12480;SDS011;6305;48.398;11.762;2024-03-08T10:56:30;18.25;;;13.00;;
12480;SDS011;6305;48.398;11.762;2024-03-08T10:58:57;16.60;;;12.50;;
12480;SDS011;6305;48.398;11.762;2024-03-08T11:01:24;17.00;;;13.02;;
12480;SDS011;6305;48.398;11.762;2024-03-08T11:03:51;15.85;;;13.00;;
12480;SDS011;6305;48.398;11.762;2024-03-08T11:06:22;15.38;;;12.10;;
12480;SDS011;6305;48.398;11.762;2024-03-08T11:08:57;14.95;;;12.35;;
12480;SDS011;6305;48.398;11.762;2024-03-08T11:11:26;17.30;;;12.85;;
12480;SDS011;6305;48.398;11.762;2024-03-08T11:13:56;17.48;;;12.95;;
12480;SDS011;6305;48.398;11.762;2024-03-08T11:16:37;16.08;;;12.68;;
12480;SDS011;6305;48.398;11.762;2024-03-08T11:21:58;16.35;;;12.75;;
12480;SDS011;6305;48.398;11.762;2024-03-08T11:24:25;16.70;;;12.88;;
12480;SDS011;6305;48.398;11.762;2024-03-08T11:26:58;17.85;;;13.13;;
12480;SDS011;6305;48.398;11.762;2024-03-08T11:29:33;15.70;;;12.88;;
12480;SDS011;6305;48.398;11.762;2024-03-08T11:32:08;16.90;;;13.05;;
12480;SDS011;6305;48.398;11.762;2024-03-08T11:34:36;13.73;;;11.57;;
12480;SDS011;6305;48.398;11.762;2024-03-08T11:37:04;13.77;;;11.27;;
12480;SDS011;6305;48.398;11.762;2024-03-08T11:39:35;16.08;;;12.40;;
12480;SDS011;6305;48.398;11.762;2024-03-08T11:42:05;15.00;;;11.90;;
12480;SDS011;6305;48.398;11.762;2024-03-08T11:44:33;13.93;;;12.02;;
12480;SDS011;6305;48.398;11.762;2024-03-08T11:47:01;14.90;;;12.52;;
12480;SDS011;6305;48.398;11.762;2024-03-08T11:49:31;13.75;;;11.77;;
12480;SDS011;6305;48.398;11.762;2024-03-08T11:52:01;13.60;;;11.52;;
12480;SDS011;6305;48.398;11.762;2024-03-08T11:54:29;15.90;;;12.88;;
12480;SDS011;6305;48.398;11.762;2024-03-08T11:56:56;14.10;;;11.43;;
12480;SDS011;6305;48.398;11.762;2024-03-08T11:59:27;13.00;;;10.60;;
12480;SDS011;6305;48.398;11.762;2024-03-08T12:01:59;12.57;;;10.52;;
12480;SDS011;6305;48.398;11.762;2024-03-08T12:04:28;13.68;;;10.82;;
12480;SDS011;6305;48.398;11.762;2024-03-08T12:06:56;14.63;;;11.90;;
12480;SDS011;6305;48.398;11.762;2024-03-08T12:09:26;13.88;;;11.82;;
12480;SDS011;6305;48.398;11.762;2024-03-08T12:11:53;14.07;;;11.23;;
12480;SDS011;6305;48.398;11.762;2024-03-08T12:14:20;15.73;;;11.43;;
12480;SDS011;6305;48.398;11.762;2024-03-08T12:16:49;14.98;;;11.73;;
12480;SDS011;6305;48.398;11.762;2024-03-08T12:19:17;13.35;;;11.40;;
12480;SDS011;6305;48.398;11.762;2024-03-08T12:21:44;15.02;;;12.30;;
12480;SDS011;6305;48.398;11.762;2024-03-08T12:24:14;13.10;;;11.07;;
12480;SDS011;6305;48.398;11.762;2024-03-08T12:26:45;15.85;;;12.35;;
12480;SDS011;6305;48.398;11.762;2024-03-08T12:29:20;14.70;;;12.13;;
12480;SDS011;6305;48.398;11.762;2024-03-08T12:31:52;12.82;;;11.40;;
12480;SDS011;6305;48.398;11.762;2024-03-08T12:34:19;12.80;;;10.85;;
12480;SDS011;6305;48.398;11.762;2024-03-08T12:36:47;12.27;;;10.85;;
12480;SDS011;6305;48.398;11.762;2024-03-08T12:39:17;14.18;;;10.50;;
12480;SDS011;6305;48.398;11.762;2024-03-08T12:41:47;12.98;;;10.23;;
12480;SDS011;6305;48.398;11.762;2024-03-08T12:44:17;12.85;;;9.18;;
12480;SDS011;6305;48.398;11.762;2024-03-08T12:46:46;12.57;;;9.50;;
12480;SDS011;6305;48.398;11.762;2024-03-08T12:49:15;12.95;;;8.95;;
12480;SDS011;6305;48.398;11.762;2024-03-08T12:51:43;11.00;;;9.50;;
12480;SDS011;6305;48.398;11.762;2024-03-08T12:54:11;11.30;;;9.25;;
12480;SDS011;6305;48.398;11.762;2024-03-08T12:56:38;10.70;;;9.20;;
12480;SDS011;6305;48.398;11.762;2024-03-08T12:59:05;10.68;;;8.73;;
12480;SDS011;6305;48.398;11.762;2024-03-08T13:01:34;11.93;;;9.15;;
12480;SDS011;6305;48.398;11.762;2024-03-08T13:04:02;12.00;;;9.52;;
12480;SDS011;6305;48.398;11.762;2024-03-08T13:06:33;11.65;;;9.25;;
12480;SDS011;6305;48.398;11.762;2024-03-08T13:08:59;10.57;;;9.40;;
12480;SDS011;6305;48.398;11.762;2024-03-08T13:11:30;11.25;;;9.40;;
12480;SDS011;6305;48.398;11.762;2024-03-08T13:14:02;12.50;;;10.20;;
12480;SDS011;6305;48.398;11.762;2024-03-08T13:16:30;12.45;;;10.30;;
12480;SDS011;6305;48.398;11.762;2024-03-08T13:19:00;12.25;;;10.27;;
12480;SDS011;6305;48.398;11.762;2024-03-08T13:21:26;11.18;;;9.63;;
12480;SDS011;6305;48.398;11.762;2024-03-08T13:23:56;10.70;;;9.50;;
12480;SDS011;6305;48.398;11.762;2024-03-08T13:26:25;12.00;;;9.30;;
12480;SDS011;6305;48.398;11.762;2024-03-08T13:28:57;11.68;;;10.20;;
12480;SDS011;6305;48.398;11.762;2024-03-08T13:31:24;10.95;;;9.85;;
12480;SDS011;6305;48.398;11.762;2024-03-08T13:33:51;11.43;;;9.75;;
12480;SDS011;6305;48.398;11.762;2024-03-08T13:36:23;12.13;;;10.35;;
12480;SDS011;6305;48.398;11.762;2024-03-08T13:38:54;11.93;;;9.93;;
12480;SDS011;6305;48.398;11.762;2024-03-08T13:41:24;12.25;;;9.77;;
12480;SDS011;6305;48.398;11.762;2024-03-08T13:43:51;12.68;;;10.38;;
12480;SDS011;6305;48.398;11.762;2024-03-08T13:46:18;11.13;;;9.10;;
12480;SDS011;6305;48.398;11.762;2024-03-08T13:48:45;11.38;;;9.65;;
12480;SDS011;6305;48.398;11.762;2024-03-08T13:51:13;11.93;;;9.60;;
12480;SDS011;6305;48.398;11.762;2024-03-08T13:53:42;10.38;;;8.73;;
12480;SDS011;6305;48.398;11.762;2024-03-08T13:56:10;11.60;;;8.93;;
12480;SDS011;6305;48.398;11.762;2024-03-08T13:58:37;11.15;;;9.10;;
12480;SDS011;6305;48.398;11.762;2024-03-08T14:01:05;11.73;;;9.20;;
12480;SDS011;6305;48.398;11.762;2024-03-08T14:03:36;10.90;;;8.88;;
12480;SDS011;6305;48.398;11.762;2024-03-08T14:06:03;9.82;;;7.82;;
12480;SDS011;6305;48.398;11.762;2024-03-08T14:08:32;13.13;;;9.45;;
12480;SDS011;6305;48.398;11.762;2024-03-08T14:10:59;10.57;;;8.30;;
12480;SDS011;6305;48.398;11.762;2024-03-08T14:13:37;9.98;;;8.10;;
12480;SDS011;6305;48.398;11.762;2024-03-08T14:16:07;9.20;;;8.05;;
12480;SDS011;6305;48.398;11.762;2024-03-08T14:18:35;19.55;;;17.70;;
12480;SDS011;6305;48.398;11.762;2024-03-08T14:21:03;17.38;;;15.20;;
12480;SDS011;6305;48.398;11.762;2024-03-08T14:23:30;10.95;;;9.40;;
12480;SDS011;6305;48.398;11.762;2024-03-08T14:25:58;11.68;;;8.98;;
12480;SDS011;6305;48.398;11.762;2024-03-08T14:28:25;10.10;;;8.35;;
12480;SDS011;6305;48.398;11.762;2024-03-08T14:30:54;12.55;;;8.20;;
12480;SDS011;6305;48.398;11.762;2024-03-08T14:33:21;10.45;;;8.40;;